Time;durP1;ratioP1;P1;durP2;ratioP2;P2;SDS_P1;SDS_P2;PMS_P1;PMS_P2;Temp;Humidity;BMP_temperature;BMP_pressure;BME280_temperature;BME280_humidity;BME280_pressure;Samples;Min_cycle;Max_cycle;Signal;HPM_P1;HPM_P2
2021/04/05 00:00:17;;;;;;;8.73;1.77;;;9.00;99.90;;;;;;4936982;29;20055;-80
2021/04/05 00:02:45;;;;;;;9.20;1.55;;;8.90;99.90;;;;;;4938808;29;20266;-81
2021/04/05 00:05:13;;;;;;;13.63;4.03;;;8.90;99.90;;;;;;4936836;29;20091;-81
2021/04/05 00:07:40;;;;;;;12.57;2.70;;;8.90;99.90;;;;;;4936801;29;20051;-81
2021/04/05 00:10:08;;;;;;;11.85;2.22;;;8.90;99.90;;;;;;4936763;29;20066;-80
2021/04/05 00:12:35;;;;;;;10.35;2.40;;;8.90;99.90;;;;;;4936403;29;20055;-80
2021/04/05 00:15:02;;;;;;;10.10;1.85;;;8.80;99.90;;;;;;4936643;29;20540;-80
2021/04/05 00:17:28;;;;;;;10.88;2.47;;;8.80;99.90;;;;;;4936992;29;20061;-80
2021/04/05 00:19:56;;;;;;;10.43;1.67;;;8.70;99.90;;;;;;4937072;29;20061;-80
2021/04/05 00:22:22;;;;;;;17.10;2.40;;;8.60;99.90;;;;;;4936591;29;20043;-79
2021/04/05 00:24:49;;;;;;;18.10;2.50;;;8.50;99.90;;;;;;4936941;29;20081;-78
2021/04/05 00:27:15;;;;;;;19.60;3.45;;;8.40;99.90;;;;;;4936768;29;20055;-79
2021/04/05 00:29:42;;;;;;;13.50;2.40;;;8.30;99.90;;;;;;4938829;29;20052;-80
2021/04/05 00:32:09;;;;;;;19.67;3.20;;;8.10;99.90;;;;;;4946479;29;20058;-80
2021/04/05 00:34:35;;;;;;;25.30;4.32;;;7.90;99.90;;;;;;4949002;29;20048;-80
2021/04/05 00:37:04;;;;;;;20.25;3.25;;;7.70;99.90;;;;;;4951233;29;20538;-80
2021/04/05 00:39:30;;;;;;;31.50;4.00;;;7.60;99.90;;;;;;4949827;29;20061;-80
2021/04/05 00:41:57;;;;;;;18.73;3.40;;;7.50;99.90;;;;;;4946259;29;20054;-80
2021/04/05 00:44:23;;;;;;;25.83;4.35;;;7.40;99.90;;;;;;4949997;29;20142;-80
2021/04/05 00:46:50;;;;;;;17.48;2.95;;;7.40;99.90;;;;;;4942024;29;20055;-80
2021/04/05 00:49:17;;;;;;;19.02;3.72;;;7.30;99.90;;;;;;4929478;29;20055;-80
2021/04/05 00:51:43;;;;;;;24.80;3.83;;;7.30;99.90;;;;;;4927074;29;20478;-79
2021/04/05 00:54:11;;;;;;;20.23;3.55;;;7.30;99.90;;;;;;4924803;29;20070;-79
2021/04/05 00:56:38;;;;;;;28.20;4.88;;;7.20;99.90;;;;;;4925624;29;20058;-80
2021/04/05 00:59:04;;;;;;;21.70;5.22;;;7.20;99.90;;;;;;4924210;29;20056;-80
2021/04/05 01:01:31;;;;;;;25.17;4.60;;;7.20;99.90;;;;;;4925322;29;20052;-80
2021/04/05 01:03:58;;;;;;;27.13;5.55;;;7.20;99.90;;;;;;4943399;29;20065;-77
2021/04/05 01:06:25;;;;;;;29.70;5.50;;;7.20;99.90;;;;;;4944047;29;20062;-77
2021/04/05 01:08:52;;;;;;;21.63;5.15;;;7.20;99.90;;;;;;4943245;29;20358;-77
2021/04/05 01:11:20;;;;;;;23.77;4.18;;;7.20;99.90;;;;;;4946124;29;20044;-77
2021/04/05 01:13:47;;;;;;;18.25;5.60;;;7.20;99.90;;;;;;4948418;29;20066;-77
2021/04/05 01:16:13;;;;;;;25.08;6.38;;;7.20;99.90;;;;;;4944848;29;20489;-77
2021/04/05 01:18:41;;;;;;;29.02;5.57;;;7.20;99.90;;;;;;4945182;29;20536;-77
2021/04/05 01:21:08;;;;;;;27.17;4.78;;;7.20;99.90;;;;;;4943597;29;20052;-77
2021/04/05 01:23:35;;;;;;;30.65;4.85;;;7.20;99.90;;;;;;4945293;29;20075;-77
2021/04/05 01:26:02;;;;;;;19.98;5.07;;;7.20;99.90;;;;;;4945805;29;20066;-77
2021/04/05 01:28:28;;;;;;;20.20;4.93;;;7.20;99.90;;;;;;4944284;29;20054;-77
2021/04/05 01:30:56;;;;;;;18.92;4.63;;;7.10;99.90;;;;;;4943004;29;20051;-77
2021/04/05 01:33:23;;;;;;;23.40;6.30;;;7.00;99.90;;;;;;4941660;29;20055;-77
2021/04/05 01:35:51;;;;;;;26.98;4.32;;;6.90;99.90;;;;;;4941981;29;20060;-77
2021/04/05 01:38:19;;;;;;;15.98;5.15;;;6.90;99.90;;;;;;4942224;29;20066;-77
2021/04/05 01:40:47;;;;;;;21.45;5.75;;;6.80;99.90;;;;;;4941677;29;20051;-77
2021/04/05 01:43:14;;;;;;;21.20;4.25;;;6.80;99.90;;;;;;4943882;29;20056;-77
2021/04/05 01:45:41;;;;;;;14.20;4.93;;;6.70;99.90;;;;;;4932762;29;20370;-77
2021/04/05 01:48:08;;;;;;;15.57;3.90;;;6.70;99.90;;;;;;4927171;29;20056;-77
2021/04/05 01:50:35;;;;;;;9.43;2.88;;;6.60;99.90;;;;;;4928668;29;20076;-77
2021/04/05 01:53:04;;;;;;;19.00;3.13;;;6.60;99.90;;;;;;4928868;29;20086;-77
2021/04/05 01:55:31;;;;;;;17.20;3.13;;;6.50;99.90;;;;;;4923878;29;20110;-77
2021/04/05 01:57:59;;;;;;;16.65;3.20;;;6.50;99.90;;;;;;4922333;29;20397;-77
2021/04/05 02:00:27;;;;;;;11.07;2.63;;;6.50;99.90;;;;;;4921188;29;20056;-76
2021/04/05 02:02:54;;;;;;;13.07;2.75;;;6.40;99.90;;;;;;4921184;29;20465;-77
2021/04/05 02:05:21;;;;;;;14.63;4.22;;;6.40;99.90;;;;;;4921012;29;20062;-76
2021/04/05 02:07:48;;;;;;;14.73;2.97;;;6.40;99.90;;;;;;4922104;29;20401;-76
2021/04/05 02:10:17;;;;;;;8.75;2.22;;;6.40;99.90;;;;;;4922104;29;20071;-77
2021/04/05 02:12:44;;;;;;;12.02;1.83;;;6.40;99.90;;;;;;4935916;29;20062;-76
2021/04/05 02:15:12;;;;;;;7.85;2.05;;;6.40;99.90;;;;;;4947854;29;20380;-77
2021/04/05 02:17:39;;;;;;;7.85;2.78;;;6.30;99.90;;;;;;4943400;29;20114;-77
2021/04/05 02:20:08;;;;;;;13.77;2.33;;;6.30;99.90;;;;;;4941870;29;20059;-77
2021/04/05 02:22:37;;;;;;;12.10;2.25;;;6.20;99.90;;;;;;4938869;29;20050;-76
2021/04/05 02:25:05;;;;;;;13.55;2.72;;;6.20;99.90;;;;;;4939275;29;20051;-76
2021/04/05 02:27:31;;;;;;;16.63;2.72;;;6.20;99.90;;;;;;4939485;29;20114;-77
2021/04/05 02:29:58;;;;;;;10.15;2.20;;;6.10;99.90;;;;;;4939291;29;20064;-77
2021/04/05 02:32:25;;;;;;;5.88;1.80;;;6.10;99.90;;;;;;4939194;29;20048;-77
2021/04/05 02:34:52;;;;;;;10.35;1.58;;;6.10;99.90;;;;;;4938849;29;20484;-77
2021/04/05 02:37:19;;;;;;;10.43;2.53;;;6.10;99.90;;;;;;4939226;29;20060;-76
2021/04/05 02:39:45;;;;;;;14.48;2.28;;;6.00;99.90;;;;;;4939105;29;20055;-77
2021/04/05 02:42:12;;;;;;;15.27;2.40;;;6.00;99.90;;;;;;4941054;29;20402;-77
2021/04/05 02:44:38;;;;;;;8.85;2.55;;;6.00;99.90;;;;;;4939513;29;20043;-77
2021/04/05 02:47:05;;;;;;;10.43;2.33;;;5.90;99.90;;;;;;4940151;29;20059;-77
2021/04/05 02:49:33;;;;;;;13.00;2.55;;;5.90;99.90;;;;;;4939726;29;20111;-77
2021/04/05 02:51:59;;;;;;;13.38;2.08;;;5.90;99.90;;;;;;4947158;29;20380;-76
2021/04/05 02:54:26;;;;;;;11.10;2.10;;;5.90;99.90;;;;;;4938883;29;20056;-77
2021/04/05 02:56:53;;;;;;;12.57;2.17;;;5.80;99.90;;;;;;4938029;29;20055;-77
2021/04/05 02:59:21;;;;;;;6.32;2.72;;;5.80;99.90;;;;;;4940281;29;20059;-77
2021/04/05 03:04:32;;;;;;;10.38;1.67;;;;;;;;;;4990465;23;20067;-78
2021/04/05 03:06:59;;;;;;;9.75;1.90;;;5.90;99.90;;;;;;4938233;29;20366;-79
2021/04/05 03:09:26;;;;;;;11.93;2.75;;;5.80;99.90;;;;;;4937996;29;20669;-76
2021/04/05 03:11:54;;;;;;;13.95;2.05;;;5.80;99.90;;;;;;4946699;29;20138;-76
2021/04/05 03:14:21;;;;;;;13.05;2.75;;;5.70;99.90;;;;;;4956693;29;20106;-76
2021/04/05 03:16:47;;;;;;;13.40;2.28;;;5.80;99.90;;;;;;4957320;29;20070;-77
2021/04/05 03:19:14;;;;;;;9.85;2.42;;;5.80;99.90;;;;;;4957976;29;20134;-77
2021/04/05 03:21:43;;;;;;;10.50;2.10;;;5.70;99.90;;;;;;4957452;29;20047;-76
2021/04/05 03:24:10;;;;;;;12.73;2.03;;;5.70;99.90;;;;;;4957446;29;20061;-76
2021/04/05 03:26:37;;;;;;;11.15;2.08;;;5.70;99.90;;;;;;4956522;29;20113;-76
2021/04/05 03:29:05;;;;;;;13.15;1.80;;;5.70;99.90;;;;;;4956973;29;20117;-76
2021/04/05 03:31:32;;;;;;;15.77;2.28;;;5.70;99.90;;;;;;4956641;29;20051;-76
2021/04/05 03:34:01;;;;;;;13.68;2.40;;;5.60;99.90;;;;;;4956940;29;20061;-77
2021/04/05 03:36:30;;;;;;;10.10;1.95;;;5.70;99.90;;;;;;4956722;29;20051;-76
2021/04/05 03:38:57;;;;;;;14.05;1.90;;;5.60;99.90;;;;;;4956469;29;20062;-76
2021/04/05 03:41:31;;;;;;;13.45;2.17;;;5.60;99.90;;;;;;4955964;29;20057;-77
2021/04/05 03:44:01;;;;;;;16.70;2.45;;;5.60;99.90;;;;;;4957785;29;20085;-77
2021/04/05 03:46:30;;;;;;;10.75;2.65;;;5.60;99.90;;;;;;4957611;29;20051;-77
2021/04/05 03:49:01;;;;;;;8.57;2.65;;;5.60;99.90;;;;;;4959109;29;20058;-76
2021/04/05 03:51:31;;;;;;;15.10;2.42;;;5.60;99.90;;;;;;4956139;29;20456;-74
2021/04/05 03:54:01;;;;;;;8.18;1.67;;;5.60;99.90;;;;;;4955980;29;20055;-74
2021/04/05 03:56:44;;;;;;;13.02;1.60;;;5.50;99.90;;;;;;4956129;29;20061;-74
2021/04/05 03:59:12;;;;;;;7.40;1.60;;;5.50;99.90;;;;;;4956224;29;20051;-74
2021/04/05 04:01:46;;;;;;;11.23;1.13;;;5.50;99.90;;;;;;4955884;29;20413;-74
2021/04/05 04:04:15;;;;;;;7.57;1.45;;;5.50;99.90;;;;;;4955862;28;20055;-74
2021/04/05 04:06:47;;;;;;;8.45;1.30;;;5.50;99.90;;;;;;4955877;29;20058;-75
2021/04/05 04:09:15;;;;;;;10.05;1.30;;;5.50;99.90;;;;;;4958645;29;20055;-74
2021/04/05 04:11:44;;;;;;;5.53;1.00;;;5.50;99.90;;;;;;4959974;29;20146;-74
2021/04/05 04:14:10;;;;;;;10.52;1.05;;;5.50;99.90;;;;;;4959972;29;20059;-75
2021/04/05 04:16:37;;;;;;;10.50;1.55;;;5.40;99.90;;;;;;4960316;29;20407;-76
2021/04/05 04:19:04;;;;;;;10.85;1.00;;;5.40;99.90;;;;;;4962379;29;20413;-76
2021/04/05 04:21:31;;;;;;;8.80;0.73;;;5.40;99.90;;;;;;4960986;29;20061;-76
2021/04/05 04:23:57;;;;;;;8.50;1.70;;;5.40;99.90;;;;;;4962682;29;20051;-75
2021/04/05 04:26:25;;;;;;;13.55;2.03;;;5.30;99.90;;;;;;4966557;29;20061;-77
2021/04/05 04:28:52;;;;;;;9.57;1.67;;;5.30;99.90;;;;;;4965458;29;20114;-76
2021/04/05 04:31:20;;;;;;;6.28;1.38;;;5.30;99.90;;;;;;4959822;29;20043;-76
2021/04/05 04:33:52;;;;;;;9.82;0.93;;;5.30;99.90;;;;;;4968278;28;20047;-75
2021/04/05 07:35:02;;;;;;;2.72;0.60;;;8.50;99.90;;;;;;5432116;23;20364;-84
2021/04/05 07:37:36;;;;;;;3.35;1.00;;;9.40;99.90;;;;;;4937778;29;20150;-87
2021/04/05 10:01:55;;;;;;;0.85;0.25;;;4.30;52.70;;;;;;5627980;23;20031;-77
2021/04/05 10:07:06;;;;;;;0.82;0.40;;;;;;;;;;4949873;29;20083;-80
2021/04/05 10:09:33;;;;;;;1.30;0.38;;;;;;;;;;4950108;29;20048;-79
2021/04/05 11:19:32;;;;;;;1.55;0.35;;;5.00;50.30;;;;;;5190344;23;20044;-84
2021/04/05 11:22:03;;;;;;;1.45;0.30;;;3.40;50.00;;;;;;4959218;29;20051;-80
2021/04/05 11:53:40;;;;;;;2.03;0.60;;;5.20;50.50;;;;;;6034813;23;21380;-79
2021/04/05 11:59:01;;;;;;;1.25;0.30;;;5.30;51.10;;;;;;5472617;23;20023;-78
2021/04/05 14:02:42;;;;;;;1.83;0.50;;;6.30;57.50;;;;;;5633569;23;20047;-80
2021/04/05 14:07:45;;;;;;;2.70;0.60;;;6.20;58.80;;;;;;5953581;23;20025;-79
2021/04/05 14:12:47;;;;;;;1.65;0.85;;;6.20;57.10;;;;;;5825777;23;20030;-81
2021/04/05 14:18:31;;;;;;;1.20;0.65;;;7.40;59.70;;;;;;5583741;23;20051;-79
2021/04/05 17:40:47;;;;;;;5.05;1.40;;;5.90;65.30;;;;;;5084054;23;20390;-81
2021/04/05 18:22:30;;;;;;;7.82;0.90;;;5.50;72.60;;;;;;5117500;23;2744679;-79
2021/04/05 19:50:04;;;;;;;10.48;3.10;;;7.20;99.90;;;;;;5027371;23;19963;-74
2021/04/05 19:52:52;;;;;;;5.75;1.55;;;4.50;99.90;;;;;;4938999;29;20074;-75
2021/04/05 19:55:32;;;;;;;5.68;1.42;;;4.50;99.90;;;;;;4937949;29;20062;-76
2021/04/05 19:58:40;;;;;;;5.25;1.10;;;4.50;99.90;;;;;;4940823;29;20127;-78
2021/04/05 20:01:10;;;;;;;7.47;1.50;;;4.50;99.90;;;;;;4925276;29;20484;-77
2021/04/05 20:04:07;;;;;;;8.40;1.50;;;4.50;99.90;;;;;;4942036;29;20114;-77
2021/04/05 20:06:46;;;;;;;7.70;1.20;;;4.40;99.90;;;;;;5033304;23;20139;-74
2021/04/05 20:09:30;;;;;;;8.93;1.48;;;4.40;99.90;;;;;;4937541;29;20052;-77
2021/04/05 20:12:15;;;;;;;4.28;1.13;;;4.40;99.90;;;;;;4954691;29;20047;-77
2021/04/05 20:14:49;;;;;;;3.30;1.27;;;4.40;99.90;;;;;;4956382;29;20066;-77
2021/04/05 20:17:21;;;;;;;6.20;1.33;;;4.40;99.90;;;;;;4956522;29;20052;-77
2021/04/05 20:19:53;;;;;;;6.20;2.17;;;4.40;99.90;;;;;;4955989;29;20534;-77
2021/04/05 20:22:21;;;;;;;2.88;1.38;;;4.30;99.90;;;;;;4956190;29;20113;-76
2021/04/05 20:25:02;;;;;;;11.63;2.95;;;4.30;99.90;;;;;;4955855;29;20055;-76
2021/04/05 20:27:42;;;;;;;5.22;1.55;;;4.30;99.90;;;;;;4956308;29;20079;-76
2021/04/05 20:30:12;;;;;;;3.60;1.42;;;4.30;99.90;;;;;;4956311;29;20062;-77
2021/04/05 20:32:40;;;;;;;4.95;1.25;;;4.30;99.90;;;;;;4955932;29;20365;-76
2021/04/05 20:35:10;;;;;;;7.57;1.30;;;4.20;99.90;;;;;;4956097;29;20058;-76
2021/04/05 20:37:42;;;;;;;5.78;1.45;;;4.20;99.90;;;;;;5070200;23;20124;-76
2021/04/05 20:40:10;;;;;;;;;;;4.20;99.90;;;;;;4921318;29;20074;-76
2021/04/05 20:42:44;;;;;;;8.13;1.60;;;4.20;99.90;;;;;;4936290;29;20450;-76
2021/04/05 20:45:11;;;;;;;5.78;1.58;;;4.10;99.90;;;;;;4936445;29;20047;-76
2021/04/05 20:47:42;;;;;;;5.55;1.58;;;4.10;99.90;;;;;;4936600;29;20056;-76
2021/04/05 20:50:28;;;;;;;5.55;1.02;;;4.10;99.90;;;;;;4937327;29;20067;-76
2021/04/05 20:52:57;;;;;;;4.75;1.85;;;4.10;99.90;;;;;;4940385;29;20044;-76
2021/04/05 20:55:30;;;;;;;4.22;1.05;;;4.10;99.90;;;;;;4940174;29;20051;-76
2021/04/05 20:58:00;;;;;;;3.25;1.83;;;4.10;99.90;;;;;;4940354;29;20055;-76
2021/04/05 21:00:28;;;;;;;8.30;0.88;;;4.10;99.90;;;;;;4940102;29;20061;-76
2021/04/05 21:02:56;;;;;;;5.63;1.00;;;4.10;99.90;;;;;;4939958;29;20043;-76
2021/04/05 21:05:23;;;;;;;2.83;1.10;;;4.10;99.90;;;;;;4940174;29;20058;-76
2021/04/05 21:07:50;;;;;;;3.08;0.77;;;4.10;99.90;;;;;;4921615;29;20055;-76
2021/04/05 21:10:20;;;;;;;9.80;0.93;;;4.10;99.90;;;;;;4925285;29;20060;-76
2021/04/05 21:12:51;;;;;;;6.00;0.95;;;4.10;99.90;;;;;;4940123;29;20066;-76
2021/04/05 21:15:19;;;;;;;3.60;0.90;;;4.00;99.90;;;;;;4939647;29;20464;-76
2021/04/05 21:17:49;;;;;;;3.65;0.80;;;4.00;99.90;;;;;;4940051;29;20051;-76
2021/04/05 21:20:24;;;;;;;4.03;0.82;;;4.00;99.90;;;;;;4939728;29;20083;-76
2021/04/05 21:22:51;;;;;;;3.67;1.20;;;4.00;99.90;;;;;;4940002;29;20056;-76
2021/04/05 21:25:18;;;;;;;11.60;1.90;;;4.00;99.90;;;;;;4939709;29;20047;-76
2021/04/05 21:27:47;;;;;;;4.03;0.95;;;4.00;99.90;;;;;;4939580;29;20118;-76
2021/04/05 21:30:16;;;;;;;2.83;0.80;;;4.00;99.90;;;;;;4939625;29;20601;-76
2021/04/05 21:32:44;;;;;;;8.77;2.70;;;3.90;99.90;;;;;;4939545;29;20043;-76
2021/04/05 21:35:14;;;;;;;9.40;1.77;;;3.90;99.90;;;;;;4998898;23;20485;-76
2021/04/05 21:37:45;;;;;;;4.32;1.55;;;3.90;99.90;;;;;;4939733;29;20052;-76
2021/04/05 21:40:15;;;;;;;4.05;1.23;;;3.90;99.90;;;;;;4943071;29;20051;-76
2021/04/05 21:42:44;;;;;;;4.38;1.20;;;3.90;99.90;;;;;;4958411;29;20478;-76
2021/04/05 21:45:14;;;;;;;2.45;0.90;;;3.80;99.90;;;;;;4958504;29;20051;-76
2021/04/05 21:47:44;;;;;;;8.63;1.52;;;3.80;99.90;;;;;;4958386;29;20051;-76
2021/04/05 21:50:11;;;;;;;5.50;1.13;;;3.80;99.90;;;;;;4958447;29;20055;-76
2021/04/05 21:52:39;;;;;;;4.35;1.58;;;3.80;99.90;;;;;;4958174;29;20051;-76
2021/04/05 21:55:09;;;;;;;7.03;1.40;;;3.70;99.90;;;;;;4958551;29;20059;-76
2021/04/05 21:57:37;;;;;;;3.97;1.25;;;3.70;99.90;;;;;;4958336;29;20145;-76
2021/04/05 22:00:10;;;;;;;6.97;1.20;;;3.70;99.90;;;;;;4958143;29;20082;-77
2021/04/05 22:02:40;;;;;;;6.38;1.05;;;3.70;99.90;;;;;;4958036;28;20051;-77
2021/04/05 22:05:08;;;;;;;12.15;1.33;;;3.70;99.90;;;;;;4958366;29;20051;-77
2021/04/05 22:07:35;;;;;;;2.65;1.00;;;3.60;99.90;;;;;;4958061;29;20051;-76
2021/04/05 22:10:03;;;;;;;3.22;1.33;;;3.60;99.90;;;;;;4957989;29;20431;-76
2021/04/05 22:12:30;;;;;;;7.93;1.48;;;3.60;99.90;;;;;;4957844;29;20051;-76
2021/04/05 22:15:10;;;;;;;6.22;1.20;;;3.60;99.90;;;;;;4944643;29;20059;-76
2021/04/05 22:17:36;;;;;;;4.13;1.35;;;3.50;99.90;;;;;;4957984;29;20392;-76
2021/04/05 22:20:12;;;;;;;1.63;0.68;;;3.50;99.90;;;;;;4958138;29;20051;-76
2021/04/05 22:22:49;;;;;;;9.73;1.85;;;3.50;99.90;;;;;;4957670;29;20117;-77
2021/04/05 22:25:16;;;;;;;4.28;1.58;;;3.50;99.90;;;;;;4958101;29;20059;-76
2021/04/05 22:27:43;;;;;;;8.27;1.48;;;3.40;99.90;;;;;;4957830;29;20047;-76
2021/04/05 22:30:10;;;;;;;11.23;2.08;;;3.40;99.90;;;;;;4958105;29;20431;-74
2021/04/05 22:32:37;;;;;;;3.30;1.30;;;3.40;99.90;;;;;;4957510;29;20086;-74
2021/04/05 22:35:07;;;;;;;6.85;1.33;;;3.30;99.90;;;;;;4957590;28;20460;-74
2021/04/05 22:37:35;;;;;;;4.57;1.30;;;3.30;99.90;;;;;;4957556;29;20051;-74
2021/04/05 22:40:03;;;;;;;7.57;1.50;;;3.20;99.90;;;;;;4957556;29;20055;-73
2021/04/05 22:42:35;;;;;;;21.90;1.60;;;3.20;99.90;;;;;;4957232;29;20479;-74
2021/04/05 22:45:06;;;;;;;7.22;1.45;;;3.10;99.90;;;;;;4957121;29;20051;-74
2021/04/05 22:47:34;;;;;;;3.35;1.15;;;3.10;99.90;;;;;;4957680;29;20094;-74
2021/04/05 22:50:01;;;;;;;5.78;1.17;;;3.10;99.90;;;;;;4957239;29;20087;-74
2021/04/05 22:52:39;;;;;;;6.53;1.25;;;3.10;99.90;;;;;;4957126;29;20094;-74
2021/04/05 22:55:08;;;;;;;4.78;1.00;;;3.10;99.90;;;;;;4960134;29;20492;-74
2021/04/05 22:57:35;;;;;;;2.35;0.80;;;3.10;99.90;;;;;;4957111;29;20106;-74
2021/04/05 23:00:03;;;;;;;7.22;1.48;;;3.10;99.90;;;;;;4957169;29;20142;-74
2021/04/05 23:02:31;;;;;;;2.50;0.88;;;3.10;99.90;;;;;;4956878;29;20048;-74
2021/04/05 23:04:58;;;;;;;4.30;1.20;;;3.10;99.90;;;;;;4957348;29;20137;-74
2021/04/05 23:07:30;;;;;;;5.20;0.98;;;3.10;99.90;;;;;;4956957;29;20476;-74
2021/04/05 23:10:01;;;;;;;7.38;1.25;;;3.10;99.90;;;;;;4956650;29;20499;-74
2021/04/05 23:12:28;;;;;;;7.40;1.00;;;3.10;99.90;;;;;;4956497;28;20051;-74
2021/04/05 23:14:55;;;;;;;4.88;1.00;;;3.10;99.90;;;;;;4956488;29;20051;-74
2021/04/05 23:17:24;;;;;;;4.47;1.00;;;3.10;99.90;;;;;;4957241;29;20047;-74
2021/04/05 23:19:51;;;;;;;10.52;1.00;;;3.20;99.90;;;;;;4956810;29;20484;-74
2021/04/05 23:22:19;;;;;;;2.22;0.90;;;3.20;99.90;;;;;;4956741;29;20062;-74
2021/04/05 23:24:55;;;;;;;2.63;1.27;;;3.10;99.90;;;;;;4956835;29;20067;-74
2021/04/05 23:27:31;;;;;;;7.53;0.95;;;3.10;99.90;;;;;;4956698;29;20441;-74
2021/04/05 23:30:04;;;;;;;6.50;0.88;;;3.10;99.90;;;;;;4956832;29;20138;-75
2021/04/05 23:32:33;;;;;;;5.32;0.73;;;3.10;99.90;;;;;;4956564;29;20530;-75
2021/04/05 23:34:59;;;;;;;4.35;1.00;;;3.10;99.90;;;;;;4956498;28;20059;-75
2021/04/05 23:37:26;;;;;;;4.40;1.35;;;3.00;99.90;;;;;;4956358;29;20150;-75
2021/04/05 23:39:55;;;;;;;8.75;0.88;;;3.00;99.90;;;;;;4956723;29;20142;-75
2021/04/05 23:42:23;;;;;;;3.80;0.90;;;3.00;99.90;;;;;;4956529;29;20134;-76
2021/04/05 23:44:50;;;;;;;7.88;1.10;;;3.00;99.90;;;;;;4956491;29;20138;-75
2021/04/05 23:47:17;;;;;;;2.78;1.10;;;2.90;99.90;;;;;;4956316;29;20146;-75
2021/04/05 23:49:44;;;;;;;9.82;2.58;;;2.90;99.90;;;;;;4956278;29;20054;-77
2021/04/05 23:52:12;;;;;;;3.03;0.82;;;2.90;99.90;;;;;;4956420;29;20063;-76
2021/04/05 23:54:45;;;;;;;7.68;1.45;;;2.90;99.90;;;;;;4956486;29;20051;-77
2021/04/05 23:57:13;;;;;;;2.83;0.75;;;2.90;99.90;;;;;;4956464;29;20061;-76
2021/04/05 23:59:40;;;;;;;5.55;0.85;;;2.90;99.90;;;;;;4956274;29;20066;-77
